sensor_id;sensor_type;location;lat;lon;timestamp;P1;durP1;ratioP1;P2;durP2;ratioP2
44276;SDS011;29973;43.742;1.236;2023-08-31T00:00:12;9.02;;;3.00;;
44276;SDS011;29973;43.742;1.236;2023-08-31T00:02:39;7.75;;;2.95;;
44276;SDS011;29973;43.742;1.236;2023-08-31T00:05:05;7.32;;;2.97;;
44276;SDS011;29973;43.742;1.236;2023-08-31T00:07:31;12.20;;;3.90;;
44276;SDS011;29973;43.742;1.236;2023-08-31T00:09:57;15.68;;;3.55;;
44276;SDS011;29973;43.742;1.236;2023-08-31T00:12:23;11.13;;;3.33;;
44276;SDS011;29973;43.742;1.236;2023-08-31T00:14:49;13.60;;;4.15;;
44276;SDS011;29973;43.742;1.236;2023-08-31T00:17:15;10.40;;;3.90;;
44276;SDS011;29973;43.742;1.236;2023-08-31T00:19:42;8.57;;;3.40;;
44276;SDS011;29973;43.742;1.236;2023-08-31T00:22:08;6.75;;;3.10;;
44276;SDS011;29973;43.742;1.236;2023-08-31T00:24:34;5.57;;;3.30;;
44276;SDS011;29973;43.742;1.236;2023-08-31T00:27:01;11.00;;;3.33;;
44276;SDS011;29973;43.742;1.236;2023-08-31T00:29:28;8.15;;;3.80;;
44276;SDS011;29973;43.742;1.236;2023-08-31T00:31:55;6.28;;;3.05;;
44276;SDS011;29973;43.742;1.236;2023-08-31T00:34:21;8.57;;;3.70;;
44276;SDS011;29973;43.742;1.236;2023-08-31T00:36:47;7.68;;;3.05;;
44276;SDS011;29973;43.742;1.236;2023-08-31T00:39:13;16.40;;;4.45;;
44276;SDS011;29973;43.742;1.236;2023-08-31T00:41:39;12.48;;;3.90;;
44276;SDS011;29973;43.742;1.236;2023-08-31T00:44:05;13.75;;;4.05;;
44276;SDS011;29973;43.742;1.236;2023-08-31T00:46:32;7.65;;;3.92;;
44276;SDS011;29973;43.742;1.236;2023-08-31T00:48:59;11.88;;;3.83;;
44276;SDS011;29973;43.742;1.236;2023-08-31T00:51:25;9.98;;;3.40;;
44276;SDS011;29973;43.742;1.236;2023-08-31T00:53:51;9.90;;;3.30;;
44276;SDS011;29973;43.742;1.236;2023-08-31T00:56:20;8.80;;;3.70;;
44276;SDS011;29973;43.742;1.236;2023-08-31T00:58:47;6.43;;;3.45;;
44276;SDS011;29973;43.742;1.236;2023-08-31T01:04:18;8.60;;;3.60;;
44276;SDS011;29973;43.742;1.236;2023-08-31T01:06:56;7.82;;;3.70;;
44276;SDS011;29973;43.742;1.236;2023-08-31T01:09:36;11.55;;;3.60;;
44276;SDS011;29973;43.742;1.236;2023-08-31T01:12:12;5.82;;;3.72;;
44276;SDS011;29973;43.742;1.236;2023-08-31T01:14:56;12.55;;;4.68;;
44276;SDS011;29973;43.742;1.236;2023-08-31T01:17:33;10.55;;;4.18;;
44276;SDS011;29973;43.742;1.236;2023-08-31T01:20:08;12.02;;;4.00;;
44276;SDS011;29973;43.742;1.236;2023-08-31T01:22:40;8.75;;;4.05;;
44276;SDS011;29973;43.742;1.236;2023-08-31T01:25:13;9.57;;;3.40;;
44276;SDS011;29973;43.742;1.236;2023-08-31T01:27:39;11.63;;;3.67;;
44276;SDS011;29973;43.742;1.236;2023-08-31T01:30:05;6.05;;;3.75;;
44276;SDS011;29973;43.742;1.236;2023-08-31T01:32:31;9.63;;;3.15;;
44276;SDS011;29973;43.742;1.236;2023-08-31T01:34:57;10.50;;;3.38;;
44276;SDS011;29973;43.742;1.236;2023-08-31T01:37:31;7.00;;;3.30;;
44276;SDS011;29973;43.742;1.236;2023-08-31T01:40:48;9.23;;;3.65;;
44276;SDS011;29973;43.742;1.236;2023-08-31T01:43:08;11.10;;;3.50;;
44276;SDS011;29973;43.742;1.236;2023-08-31T01:45:36;9.75;;;3.40;;
44276;SDS011;29973;43.742;1.236;2023-08-31T01:48:03;9.85;;;3.22;;
44276;SDS011;29973;43.742;1.236;2023-08-31T01:50:30;9.10;;;3.55;;
44276;SDS011;29973;43.742;1.236;2023-08-31T01:52:55;8.65;;;3.35;;
44276;SDS011;29973;43.742;1.236;2023-08-31T01:55:21;9.45;;;3.60;;
44276;SDS011;29973;43.742;1.236;2023-08-31T01:57:47;8.45;;;3.80;;
44276;SDS011;29973;43.742;1.236;2023-08-31T02:00:13;6.13;;;2.83;;
44276;SDS011;29973;43.742;1.236;2023-08-31T02:02:41;8.23;;;4.00;;
44276;SDS011;29973;43.742;1.236;2023-08-31T02:05:07;10.30;;;3.75;;
44276;SDS011;29973;43.742;1.236;2023-08-31T02:07:33;9.15;;;3.65;;
44276;SDS011;29973;43.742;1.236;2023-08-31T02:09:59;12.85;;;3.83;;
44276;SDS011;29973;43.742;1.236;2023-08-31T02:12:25;9.95;;;3.40;;
44276;SDS011;29973;43.742;1.236;2023-08-31T02:14:50;9.65;;;3.72;;
44276;SDS011;29973;43.742;1.236;2023-08-31T02:17:16;11.20;;;3.90;;
44276;SDS011;29973;43.742;1.236;2023-08-31T02:19:42;10.02;;;4.03;;
44276;SDS011;29973;43.742;1.236;2023-08-31T02:22:08;10.65;;;3.10;;
44276;SDS011;29973;43.742;1.236;2023-08-31T02:24:34;8.25;;;3.42;;
44276;SDS011;29973;43.742;1.236;2023-08-31T02:26:59;8.10;;;3.60;;
44276;SDS011;29973;43.742;1.236;2023-08-31T02:29:25;9.60;;;3.63;;
44276;SDS011;29973;43.742;1.236;2023-08-31T02:31:51;16.45;;;4.18;;
44276;SDS011;29973;43.742;1.236;2023-08-31T02:34:16;11.50;;;4.10;;
44276;SDS011;29973;43.742;1.236;2023-08-31T02:36:42;13.35;;;3.88;;
44276;SDS011;29973;43.742;1.236;2023-08-31T02:39:08;9.35;;;3.80;;
44276;SDS011;29973;43.742;1.236;2023-08-31T02:41:34;6.20;;;3.80;;
44276;SDS011;29973;43.742;1.236;2023-08-31T02:43:59;7.55;;;3.65;;
44276;SDS011;29973;43.742;1.236;2023-08-31T02:46:25;7.00;;;3.65;;
44276;SDS011;29973;43.742;1.236;2023-08-31T02:48:51;10.38;;;3.88;;
44276;SDS011;29973;43.742;1.236;2023-08-31T02:51:16;8.77;;;3.60;;
44276;SDS011;29973;43.742;1.236;2023-08-31T02:53:42;10.02;;;3.78;;
44276;SDS011;29973;43.742;1.236;2023-08-31T02:56:08;9.23;;;3.80;;
44276;SDS011;29973;43.742;1.236;2023-08-31T02:58:33;9.50;;;3.70;;
44276;SDS011;29973;43.742;1.236;2023-08-31T03:01:09;14.80;;;4.43;;
44276;SDS011;29973;43.742;1.236;2023-08-31T03:03:37;9.60;;;3.78;;
44276;SDS011;29973;43.742;1.236;2023-08-31T03:06:03;10.35;;;4.53;;
44276;SDS011;29973;43.742;1.236;2023-08-31T03:08:30;11.68;;;4.32;;
44276;SDS011;29973;43.742;1.236;2023-08-31T03:10:56;10.23;;;4.60;;
44276;SDS011;29973;43.742;1.236;2023-08-31T03:13:23;13.55;;;4.50;;
44276;SDS011;29973;43.742;1.236;2023-08-31T03:15:48;14.90;;;4.78;;
44276;SDS011;29973;43.742;1.236;2023-08-31T03:18:14;9.38;;;4.40;;
44276;SDS011;29973;43.742;1.236;2023-08-31T03:20:40;15.18;;;4.10;;
44276;SDS011;29973;43.742;1.236;2023-08-31T03:23:05;10.57;;;4.60;;
44276;SDS011;29973;43.742;1.236;2023-08-31T03:25:31;11.00;;;4.07;;
44276;SDS011;29973;43.742;1.236;2023-08-31T03:27:56;13.23;;;4.68;;
44276;SDS011;29973;43.742;1.236;2023-08-31T03:30:22;15.35;;;4.10;;
44276;SDS011;29973;43.742;1.236;2023-08-31T03:32:48;11.25;;;4.15;;
44276;SDS011;29973;43.742;1.236;2023-08-31T03:35:13;14.45;;;4.32;;
44276;SDS011;29973;43.742;1.236;2023-08-31T03:37:39;10.82;;;4.20;;
44276;SDS011;29973;43.742;1.236;2023-08-31T03:40:05;8.45;;;4.25;;
44276;SDS011;29973;43.742;1.236;2023-08-31T03:42:32;11.35;;;4.22;;
44276;SDS011;29973;43.742;1.236;2023-08-31T03:45:01;6.78;;;3.88;;
44276;SDS011;29973;43.742;1.236;2023-08-31T03:47:28;10.40;;;4.20;;
44276;SDS011;29973;43.742;1.236;2023-08-31T03:49:54;9.98;;;4.72;;
44276;SDS011;29973;43.742;1.236;2023-08-31T03:52:19;11.50;;;4.78;;
44276;SDS011;29973;43.742;1.236;2023-08-31T03:54:45;9.93;;;4.75;;
44276;SDS011;29973;43.742;1.236;2023-08-31T03:57:11;15.27;;;5.22;;
44276;SDS011;29973;43.742;1.236;2023-08-31T03:59:37;9.82;;;4.55;;
44276;SDS011;29973;43.742;1.236;2023-08-31T04:02:02;12.40;;;4.70;;
44276;SDS011;29973;43.742;1.236;2023-08-31T04:04:29;9.90;;;5.05;;
44276;SDS011;29973;43.742;1.236;2023-08-31T04:06:54;10.02;;;5.03;;
44276;SDS011;29973;43.742;1.236;2023-08-31T04:09:20;14.93;;;5.45;;
44276;SDS011;29973;43.742;1.236;2023-08-31T04:11:46;16.77;;;5.63;;
44276;SDS011;29973;43.742;1.236;2023-08-31T04:14:11;13.65;;;4.82;;
44276;SDS011;29973;43.742;1.236;2023-08-31T04:16:37;15.18;;;5.85;;
44276;SDS011;29973;43.742;1.236;2023-08-31T04:19:02;13.52;;;5.47;;
44276;SDS011;29973;43.742;1.236;2023-08-31T04:21:29;17.25;;;5.63;;
44276;SDS011;29973;43.742;1.236;2023-08-31T04:23:54;16.80;;;5.63;;
44276;SDS011;29973;43.742;1.236;2023-08-31T04:26:20;10.60;;;5.63;;
44276;SDS011;29973;43.742;1.236;2023-08-31T04:28:46;12.90;;;5.07;;
44276;SDS011;29973;43.742;1.236;2023-08-31T04:31:11;17.52;;;5.88;;
44276;SDS011;29973;43.742;1.236;2023-08-31T04:33:37;11.90;;;5.95;;
44276;SDS011;29973;43.742;1.236;2023-08-31T04:36:04;10.38;;;5.32;;
44276;SDS011;29973;43.742;1.236;2023-08-31T04:38:30;12.48;;;5.68;;
44276;SDS011;29973;43.742;1.236;2023-08-31T04:41:00;12.20;;;5.75;;
44276;SDS011;29973;43.742;1.236;2023-08-31T04:43:26;15.93;;;5.35;;
44276;SDS011;29973;43.742;1.236;2023-08-31T04:45:53;9.15;;;4.80;;
44276;SDS011;29973;43.742;1.236;2023-08-31T04:48:19;9.85;;;5.20;;
44276;SDS011;29973;43.742;1.236;2023-08-31T04:50:44;11.02;;;5.45;;
44276;SDS011;29973;43.742;1.236;2023-08-31T04:53:10;13.90;;;5.10;;
44276;SDS011;29973;43.742;1.236;2023-08-31T04:55:36;9.32;;;5.18;;
44276;SDS011;29973;43.742;1.236;2023-08-31T04:58:03;11.73;;;5.63;;
44276;SDS011;29973;43.742;1.236;2023-08-31T05:00:28;11.32;;;5.25;;
44276;SDS011;29973;43.742;1.236;2023-08-31T05:02:55;11.38;;;4.95;;
44276;SDS011;29973;43.742;1.236;2023-08-31T05:05:21;10.40;;;4.63;;
44276;SDS011;29973;43.742;1.236;2023-08-31T05:07:46;18.35;;;5.60;;
44276;SDS011;29973;43.742;1.236;2023-08-31T05:10:12;9.95;;;4.95;;
44276;SDS011;29973;43.742;1.236;2023-08-31T05:12:38;12.32;;;4.75;;
44276;SDS011;29973;43.742;1.236;2023-08-31T05:15:04;12.02;;;4.80;;
44276;SDS011;29973;43.742;1.236;2023-08-31T05:17:30;11.93;;;5.20;;
44276;SDS011;29973;43.742;1.236;2023-08-31T05:19:56;16.60;;;5.70;;
44276;SDS011;29973;43.742;1.236;2023-08-31T05:22:22;9.63;;;4.82;;
44276;SDS011;29973;43.742;1.236;2023-08-31T05:24:47;12.98;;;5.32;;
44276;SDS011;29973;43.742;1.236;2023-08-31T05:27:13;10.45;;;4.63;;
44276;SDS011;29973;43.742;1.236;2023-08-31T05:29:39;11.82;;;4.80;;
44276;SDS011;29973;43.742;1.236;2023-08-31T05:32:05;13.10;;;4.95;;
44276;SDS011;29973;43.742;1.236;2023-08-31T05:34:31;13.18;;;5.07;;
44276;SDS011;29973;43.742;1.236;2023-08-31T05:36:59;17.60;;;5.07;;
44276;SDS011;29973;43.742;1.236;2023-08-31T05:39:25;17.25;;;5.43;;
44276;SDS011;29973;43.742;1.236;2023-08-31T05:41:51;10.75;;;5.05;;
44276;SDS011;29973;43.742;1.236;2023-08-31T05:44:16;11.38;;;4.95;;
44276;SDS011;29973;43.742;1.236;2023-08-31T05:46:42;11.57;;;4.80;;
44276;SDS011;29973;43.742;1.236;2023-08-31T05:49:08;19.40;;;4.90;;
44276;SDS011;29973;43.742;1.236;2023-08-31T05:51:34;9.70;;;4.30;;
44276;SDS011;29973;43.742;1.236;2023-08-31T05:54:00;11.02;;;4.50;;
44276;SDS011;29973;43.742;1.236;2023-08-31T05:56:26;14.20;;;4.70;;
44276;SDS011;29973;43.742;1.236;2023-08-31T05:58:51;14.48;;;4.78;;
44276;SDS011;29973;43.742;1.236;2023-08-31T06:01:20;11.32;;;4.30;;
44276;SDS011;29973;43.742;1.236;2023-08-31T06:03:47;20.42;;;5.15;;
44276;SDS011;29973;43.742;1.236;2023-08-31T06:06:13;11.80;;;4.47;;
44276;SDS011;29973;43.742;1.236;2023-08-31T06:08:39;15.30;;;4.82;;
44276;SDS011;29973;43.742;1.236;2023-08-31T06:11:07;14.75;;;4.65;;
44276;SDS011;29973;43.742;1.236;2023-08-31T06:13:33;17.40;;;4.68;;
44276;SDS011;29973;43.742;1.236;2023-08-31T06:15:59;11.32;;;4.13;;
44276;SDS011;29973;43.742;1.236;2023-08-31T06:18:25;10.57;;;3.95;;
44276;SDS011;29973;43.742;1.236;2023-08-31T06:20:51;10.80;;;3.65;;
44276;SDS011;29973;43.742;1.236;2023-08-31T06:23:17;8.65;;;3.78;;
44276;SDS011;29973;43.742;1.236;2023-08-31T06:25:42;12.27;;;4.47;;
44276;SDS011;29973;43.742;1.236;2023-08-31T06:28:10;10.70;;;4.10;;
44276;SDS011;29973;43.742;1.236;2023-08-31T06:30:37;10.88;;;3.45;;
44276;SDS011;29973;43.742;1.236;2023-08-31T06:33:03;15.40;;;4.00;;
44276;SDS011;29973;43.742;1.236;2023-08-31T06:35:30;8.65;;;3.22;;
44276;SDS011;29973;43.742;1.236;2023-08-31T06:37:58;7.15;;;3.53;;
44276;SDS011;29973;43.742;1.236;2023-08-31T06:40:24;11.75;;;3.90;;
44276;SDS011;29973;43.742;1.236;2023-08-31T06:42:50;9.38;;;3.65;;
44276;SDS011;29973;43.742;1.236;2023-08-31T06:45:15;11.98;;;3.58;;
44276;SDS011;29973;43.742;1.236;2023-08-31T06:47:41;12.68;;;3.50;;
44276;SDS011;29973;43.742;1.236;2023-08-31T06:50:07;16.02;;;3.78;;
44276;SDS011;29973;43.742;1.236;2023-08-31T06:52:33;7.50;;;3.15;;
44276;SDS011;29973;43.742;1.236;2023-08-31T06:54:59;16.00;;;3.75;;
44276;SDS011;29973;43.742;1.236;2023-08-31T06:57:25;11.18;;;3.83;;
44276;SDS011;29973;43.742;1.236;2023-08-31T06:59:52;10.63;;;3.33;;
44276;SDS011;29973;43.742;1.236;2023-08-31T07:02:18;14.75;;;4.07;;
44276;SDS011;29973;43.742;1.236;2023-08-31T07:04:45;7.97;;;3.67;;
44276;SDS011;29973;43.742;1.236;2023-08-31T07:07:11;10.38;;;3.30;;
44276;SDS011;29973;43.742;1.236;2023-08-31T07:09:39;5.15;;;3.10;;
44276;SDS011;29973;43.742;1.236;2023-08-31T07:12:06;13.85;;;3.97;;
44276;SDS011;29973;43.742;1.236;2023-08-31T07:14:32;13.00;;;3.25;;
44276;SDS011;29973;43.742;1.236;2023-08-31T07:16:59;9.93;;;3.20;;
44276;SDS011;29973;43.742;1.236;2023-08-31T07:19:24;13.40;;;3.17;;
44276;SDS011;29973;43.742;1.236;2023-08-31T07:21:50;11.02;;;3.67;;
44276;SDS011;29973;43.742;1.236;2023-08-31T07:24:16;10.55;;;3.25;;
44276;SDS011;29973;43.742;1.236;2023-08-31T07:26:42;12.52;;;3.42;;
44276;SDS011;29973;43.742;1.236;2023-08-31T07:29:07;9.90;;;3.50;;
44276;SDS011;29973;43.742;1.236;2023-08-31T07:31:33;14.02;;;3.22;;
44276;SDS011;29973;43.742;1.236;2023-08-31T07:33:59;10.15;;;3.30;;
44276;SDS011;29973;43.742;1.236;2023-08-31T07:36:25;12.18;;;2.78;;
44276;SDS011;29973;43.742;1.236;2023-08-31T07:38:51;8.32;;;2.97;;
44276;SDS011;29973;43.742;1.236;2023-08-31T07:41:16;9.38;;;3.45;;
44276;SDS011;29973;43.742;1.236;2023-08-31T07:43:42;12.13;;;3.10;;
44276;SDS011;29973;43.742;1.236;2023-08-31T07:46:08;9.23;;;2.85;;
44276;SDS011;29973;43.742;1.236;2023-08-31T07:48:33;9.10;;;2.63;;
44276;SDS011;29973;43.742;1.236;2023-08-31T07:50:59;13.02;;;2.80;;
44276;SDS011;29973;43.742;1.236;2023-08-31T07:53:25;15.07;;;4.13;;
44276;SDS011;29973;43.742;1.236;2023-08-31T07:55:54;7.10;;;2.97;;
44276;SDS011;29973;43.742;1.236;2023-08-31T07:58:21;11.68;;;2.88;;
44276;SDS011;29973;43.742;1.236;2023-08-31T08:00:47;11.13;;;3.08;;
44276;SDS011;29973;43.742;1.236;2023-08-31T08:03:12;10.77;;;3.00;;
44276;SDS011;29973;43.742;1.236;2023-08-31T08:05:41;14.98;;;3.13;;
44276;SDS011;29973;43.742;1.236;2023-08-31T08:08:07;7.57;;;3.13;;
44276;SDS011;29973;43.742;1.236;2023-08-31T08:10:33;10.68;;;3.15;;
44276;SDS011;29973;43.742;1.236;2023-08-31T08:12:58;12.05;;;3.30;;
44276;SDS011;29973;43.742;1.236;2023-08-31T08:15:24;8.10;;;2.80;;
44276;SDS011;29973;43.742;1.236;2023-08-31T08:17:50;8.32;;;3.10;;
44276;SDS011;29973;43.742;1.236;2023-08-31T08:20:16;15.00;;;2.72;;
44276;SDS011;29973;43.742;1.236;2023-08-31T08:22:42;9.77;;;2.83;;
44276;SDS011;29973;43.742;1.236;2023-08-31T08:25:08;9.05;;;3.10;;
44276;SDS011;29973;43.742;1.236;2023-08-31T08:27:34;9.60;;;2.80;;
44276;SDS011;29973;43.742;1.236;2023-08-31T08:30:01;14.32;;;2.90;;
44276;SDS011;29973;43.742;1.236;2023-08-31T08:32:28;13.15;;;2.75;;
44276;SDS011;29973;43.742;1.236;2023-08-31T08:34:53;13.52;;;3.05;;
44276;SDS011;29973;43.742;1.236;2023-08-31T08:37:19;16.27;;;2.70;;
44276;SDS011;29973;43.742;1.236;2023-08-31T08:39:48;10.05;;;2.72;;
44276;SDS011;29973;43.742;1.236;2023-08-31T08:42:15;9.90;;;2.65;;
44276;SDS011;29973;43.742;1.236;2023-08-31T08:44:44;11.95;;;2.42;;
44276;SDS011;29973;43.742;1.236;2023-08-31T08:47:11;8.65;;;2.63;;
44276;SDS011;29973;43.742;1.236;2023-08-31T08:49:37;12.57;;;2.83;;
44276;SDS011;29973;43.742;1.236;2023-08-31T08:52:03;8.00;;;2.72;;
44276;SDS011;29973;43.742;1.236;2023-08-31T08:54:29;15.40;;;2.92;;
44276;SDS011;29973;43.742;1.236;2023-08-31T08:56:56;12.00;;;2.90;;
44276;SDS011;29973;43.742;1.236;2023-08-31T08:59:22;7.63;;;2.00;;
44276;SDS011;29973;43.742;1.236;2023-08-31T09:01:48;5.63;;;2.17;;
44276;SDS011;29973;43.742;1.236;2023-08-31T09:04:14;12.00;;;3.05;;
44276;SDS011;29973;43.742;1.236;2023-08-31T09:06:40;9.63;;;3.20;;
44276;SDS011;29973;43.742;1.236;2023-08-31T09:09:07;10.68;;;3.00;;
44276;SDS011;29973;43.742;1.236;2023-08-31T09:11:34;6.05;;;2.10;;
44276;SDS011;29973;43.742;1.236;2023-08-31T09:14:13;7.00;;;2.47;;
44276;SDS011;29973;43.742;1.236;2023-08-31T09:16:43;14.23;;;3.17;;
44276;SDS011;29973;43.742;1.236;2023-08-31T09:19:21;7.15;;;2.50;;
44276;SDS011;29973;43.742;1.236;2023-08-31T09:21:48;12.43;;;2.88;;
44276;SDS011;29973;43.742;1.236;2023-08-31T09:24:14;12.73;;;2.47;;
44276;SDS011;29973;43.742;1.236;2023-08-31T09:26:47;13.13;;;2.95;;
44276;SDS011;29973;43.742;1.236;2023-08-31T09:29:13;7.57;;;2.20;;
44276;SDS011;29973;43.742;1.236;2023-08-31T09:31:43;10.05;;;2.53;;
44276;SDS011;29973;43.742;1.236;2023-08-31T09:34:10;10.43;;;2.30;;
44276;SDS011;29973;43.742;1.236;2023-08-31T09:36:36;5.43;;;1.92;;
44276;SDS011;29973;43.742;1.236;2023-08-31T09:39:03;7.50;;;1.52;;
44276;SDS011;29973;43.742;1.236;2023-08-31T09:41:30;9.45;;;2.47;;
44276;SDS011;29973;43.742;1.236;2023-08-31T09:43:56;8.52;;;2.13;;
44276;SDS011;29973;43.742;1.236;2023-08-31T09:46:39;7.28;;;2.25;;
44276;SDS011;29973;43.742;1.236;2023-08-31T09:49:04;9.95;;;2.50;;
44276;SDS011;29973;43.742;1.236;2023-08-31T09:51:32;7.45;;;2.22;;
44276;SDS011;29973;43.742;1.236;2023-08-31T09:54:00;7.25;;;1.88;;
44276;SDS011;29973;43.742;1.236;2023-08-31T09:56:28;5.53;;;1.98;;
44276;SDS011;29973;43.742;1.236;2023-08-31T09:58:56;9.10;;;2.58;;
44276;SDS011;29973;43.742;1.236;2023-08-31T10:01:22;13.18;;;2.33;;
44276;SDS011;29973;43.742;1.236;2023-08-31T10:03:48;8.50;;;2.42;;
44276;SDS011;29973;43.742;1.236;2023-08-31T10:06:14;7.45;;;2.10;;
44276;SDS011;29973;43.742;1.236;2023-08-31T10:08:40;7.13;;;2.15;;
44276;SDS011;29973;43.742;1.236;2023-08-31T10:11:06;5.53;;;2.22;;
44276;SDS011;29973;43.742;1.236;2023-08-31T10:13:35;8.73;;;1.98;;
44276;SDS011;29973;43.742;1.236;2023-08-31T10:16:04;8.15;;;2.08;;
44276;SDS011;29973;43.742;1.236;2023-08-31T10:18:30;7.55;;;2.25;;
44276;SDS011;29973;43.742;1.236;2023-08-31T10:20:57;5.18;;;1.90;;
44276;SDS011;29973;43.742;1.236;2023-08-31T10:23:22;6.05;;;2.00;;
44276;SDS011;29973;43.742;1.236;2023-08-31T10:28:22;7.82;;;2.05;;
44276;SDS011;29973;43.742;1.236;2023-08-31T10:31:05;4.97;;;1.63;;
44276;SDS011;29973;43.742;1.236;2023-08-31T10:33:41;7.53;;;2.42;;
44276;SDS011;29973;43.742;1.236;2023-08-31T10:36:41;5.80;;;1.88;;
44276;SDS011;29973;43.742;1.236;2023-08-31T10:41:40;8.65;;;2.15;;
44276;SDS011;29973;43.742;1.236;2023-08-31T10:46:45;5.78;;;2.10;;
44276;SDS011;29973;43.742;1.236;2023-08-31T10:51:38;4.75;;;2.10;;
44276;SDS011;29973;43.742;1.236;2023-08-31T10:56:38;8.02;;;2.08;;
44276;SDS011;29973;43.742;1.236;2023-08-31T10:59:16;6.57;;;1.88;;
44276;SDS011;29973;43.742;1.236;2023-08-31T11:01:52;7.55;;;1.75;;
44276;SDS011;29973;43.742;1.236;2023-08-31T11:04:25;6.57;;;1.77;;
44276;SDS011;29973;43.742;1.236;2023-08-31T11:07:14;8.30;;;2.00;;
44276;SDS011;29973;43.742;1.236;2023-08-31T11:09:40;5.45;;;2.33;;
44276;SDS011;29973;43.742;1.236;2023-08-31T11:12:06;6.93;;;2.00;;
44276;SDS011;29973;43.742;1.236;2023-08-31T11:14:32;4.68;;;1.98;;
44276;SDS011;29973;43.742;1.236;2023-08-31T11:16:59;7.60;;;2.08;;
44276;SDS011;29973;43.742;1.236;2023-08-31T11:19:25;8.57;;;2.15;;
44276;SDS011;29973;43.742;1.236;2023-08-31T11:21:52;5.00;;;1.83;;
44276;SDS011;29973;43.742;1.236;2023-08-31T11:24:19;4.80;;;2.17;;
44276;SDS011;29973;43.742;1.236;2023-08-31T11:26:50;5.47;;;1.80;;
44276;SDS011;29973;43.742;1.236;2023-08-31T11:29:15;7.20;;;1.90;;
44276;SDS011;29973;43.742;1.236;2023-08-31T11:31:41;7.18;;;2.10;;
44276;SDS011;29973;43.742;1.236;2023-08-31T11:34:11;5.80;;;2.00;;
44276;SDS011;29973;43.742;1.236;2023-08-31T11:36:38;5.45;;;2.03;;
44276;SDS011;29973;43.742;1.236;2023-08-31T11:39:06;4.72;;;2.03;;
44276;SDS011;29973;43.742;1.236;2023-08-31T11:41:32;7.32;;;2.13;;
44276;SDS011;29973;43.742;1.236;2023-08-31T11:44:00;8.13;;;1.95;;
44276;SDS011;29973;43.742;1.236;2023-08-31T11:46:26;3.78;;;1.73;;
44276;SDS011;29973;43.742;1.236;2023-08-31T11:48:52;5.15;;;1.95;;
44276;SDS011;29973;43.742;1.236;2023-08-31T11:51:19;7.03;;;1.70;;
44276;SDS011;29973;43.742;1.236;2023-08-31T11:53:45;6.07;;;2.10;;
44276;SDS011;29973;43.742;1.236;2023-08-31T11:56:11;6.90;;;1.83;;
44276;SDS011;29973;43.742;1.236;2023-08-31T11:58:42;9.93;;;2.03;;
44276;SDS011;29973;43.742;1.236;2023-08-31T12:01:11;5.85;;;1.80;;
44276;SDS011;29973;43.742;1.236;2023-08-31T12:03:44;4.78;;;1.73;;
44276;SDS011;29973;43.742;1.236;2023-08-31T12:06:10;6.03;;;1.83;;
44276;SDS011;29973;43.742;1.236;2023-08-31T12:08:36;6.40;;;1.95;;
44276;SDS011;29973;43.742;1.236;2023-08-31T12:11:03;4.95;;;1.63;;
44276;SDS011;29973;43.742;1.236;2023-08-31T12:13:31;4.20;;;1.88;;
44276;SDS011;29973;43.742;1.236;2023-08-31T12:15:57;4.05;;;1.83;;
44276;SDS011;29973;43.742;1.236;2023-08-31T12:18:23;4.93;;;1.70;;
44276;SDS011;29973;43.742;1.236;2023-08-31T12:20:50;3.80;;;1.83;;
44276;SDS011;29973;43.742;1.236;2023-08-31T12:23:16;3.70;;;1.48;;
44276;SDS011;29973;43.742;1.236;2023-08-31T12:25:48;3.75;;;1.60;;
44276;SDS011;29973;43.742;1.236;2023-08-31T12:28:14;4.10;;;1.52;;
44276;SDS011;29973;43.742;1.236;2023-08-31T12:30:47;6.68;;;2.13;;
44276;SDS011;29973;43.742;1.236;2023-08-31T12:33:15;5.45;;;1.50;;
44276;SDS011;29973;43.742;1.236;2023-08-31T12:35:41;6.28;;;1.77;;
44276;SDS011;29973;43.742;1.236;2023-08-31T12:38:06;6.15;;;1.80;;
44276;SDS011;29973;43.742;1.236;2023-08-31T12:40:32;5.32;;;1.88;;
44276;SDS011;29973;43.742;1.236;2023-08-31T12:42:58;5.57;;;1.80;;
44276;SDS011;29973;43.742;1.236;2023-08-31T12:45:23;4.03;;;1.60;;
44276;SDS011;29973;43.742;1.236;2023-08-31T12:47:49;4.22;;;1.63;;
44276;SDS011;29973;43.742;1.236;2023-08-31T12:50:15;9.68;;;1.90;;
44276;SDS011;29973;43.742;1.236;2023-08-31T12:52:41;4.78;;;1.70;;
44276;SDS011;29973;43.742;1.236;2023-08-31T12:55:11;6.13;;;1.58;;
44276;SDS011;29973;43.742;1.236;2023-08-31T12:57:37;5.63;;;1.63;;
44276;SDS011;29973;43.742;1.236;2023-08-31T13:00:03;2.97;;;1.23;;
44276;SDS011;29973;43.742;1.236;2023-08-31T13:02:34;6.22;;;1.90;;
44276;SDS011;29973;43.742;1.236;2023-08-31T13:05:00;6.55;;;2.05;;
44276;SDS011;29973;43.742;1.236;2023-08-31T13:07:25;4.07;;;1.40;;
44276;SDS011;29973;43.742;1.236;2023-08-31T13:09:51;5.18;;;1.65;;
44276;SDS011;29973;43.742;1.236;2023-08-31T13:12:17;4.30;;;1.77;;
44276;SDS011;29973;43.742;1.236;2023-08-31T13:14:43;4.55;;;1.90;;
44276;SDS011;29973;43.742;1.236;2023-08-31T13:17:09;3.70;;;1.67;;
44276;SDS011;29973;43.742;1.236;2023-08-31T13:19:35;3.30;;;1.63;;
44276;SDS011;29973;43.742;1.236;2023-08-31T13:22:01;4.22;;;1.60;;
44276;SDS011;29973;43.742;1.236;2023-08-31T13:24:27;8.95;;;1.80;;
44276;SDS011;29973;43.742;1.236;2023-08-31T13:26:52;4.00;;;1.50;;
44276;SDS011;29973;43.742;1.236;2023-08-31T13:29:18;4.75;;;1.85;;
44276;SDS011;29973;43.742;1.236;2023-08-31T13:31:44;3.58;;;1.60;;
44276;SDS011;29973;43.742;1.236;2023-08-31T13:34:10;3.00;;;1.30;;
44276;SDS011;29973;43.742;1.236;2023-08-31T13:36:36;4.43;;;1.67;;
44276;SDS011;29973;43.742;1.236;2023-08-31T13:39:02;4.60;;;1.63;;
44276;SDS011;29973;43.742;1.236;2023-08-31T13:41:32;5.18;;;1.63;;
44276;SDS011;29973;43.742;1.236;2023-08-31T13:43:57;3.50;;;1.65;;
44276;SDS011;29973;43.742;1.236;2023-08-31T13:46:23;3.25;;;1.38;;
44276;SDS011;29973;43.742;1.236;2023-08-31T13:48:49;4.25;;;1.52;;
44276;SDS011;29973;43.742;1.236;2023-08-31T13:51:15;3.63;;;1.70;;
44276;SDS011;29973;43.742;1.236;2023-08-31T13:53:40;5.50;;;1.50;;
44276;SDS011;29973;43.742;1.236;2023-08-31T13:56:06;4.30;;;1.50;;
44276;SDS011;29973;43.742;1.236;2023-08-31T13:58:32;4.88;;;1.65;;
44276;SDS011;29973;43.742;1.236;2023-08-31T14:01:00;5.97;;;1.70;;
44276;SDS011;29973;43.742;1.236;2023-08-31T14:03:28;2.78;;;1.55;;
44276;SDS011;29973;43.742;1.236;2023-08-31T14:05:54;4.63;;;1.52;;
44276;SDS011;29973;43.742;1.236;2023-08-31T14:08:20;3.30;;;1.40;;
44276;SDS011;29973;43.742;1.236;2023-08-31T14:10:45;6.68;;;1.20;;
44276;SDS011;29973;43.742;1.236;2023-08-31T14:13:11;4.47;;;1.30;;
44276;SDS011;29973;43.742;1.236;2023-08-31T14:15:37;2.42;;;1.30;;
44276;SDS011;29973;43.742;1.236;2023-08-31T14:18:09;4.47;;;1.70;;
44276;SDS011;29973;43.742;1.236;2023-08-31T14:20:34;3.63;;;1.33;;
44276;SDS011;29973;43.742;1.236;2023-08-31T14:23:00;5.70;;;1.52;;
44276;SDS011;29973;43.742;1.236;2023-08-31T14:25:26;3.38;;;1.30;;
44276;SDS011;29973;43.742;1.236;2023-08-31T14:27:51;3.80;;;1.58;;
44276;SDS011;29973;43.742;1.236;2023-08-31T14:30:17;4.30;;;1.52;;
44276;SDS011;29973;43.742;1.236;2023-08-31T14:32:43;4.55;;;1.77;;
44276;SDS011;29973;43.742;1.236;2023-08-31T14:35:08;9.30;;;1.88;;
44276;SDS011;29973;43.742;1.236;2023-08-31T14:37:35;2.97;;;1.52;;
44276;SDS011;29973;43.742;1.236;2023-08-31T14:40:01;4.32;;;1.25;;
44276;SDS011;29973;43.742;1.236;2023-08-31T14:42:26;3.20;;;1.45;;
44276;SDS011;29973;43.742;1.236;2023-08-31T14:44:52;4.65;;;1.40;;
44276;SDS011;29973;43.742;1.236;2023-08-31T14:47:18;4.13;;;1.40;;
44276;SDS011;29973;43.742;1.236;2023-08-31T14:49:44;6.28;;;1.88;;
44276;SDS011;29973;43.742;1.236;2023-08-31T14:52:09;5.50;;;1.38;;
44276;SDS011;29973;43.742;1.236;2023-08-31T14:54:35;3.80;;;1.70;;
44276;SDS011;29973;43.742;1.236;2023-08-31T14:57:01;4.72;;;1.70;;